Time;durP1;ratioP1;P1;durP2;ratioP2;P2;SDS_P1;SDS_P2;PMS_P1;PMS_P2;Temp;Humidity;BMP_temperature;BMP_pressure;BME280_temperature;BME280_humidity;BME280_pressure;Samples;Min_cycle;Max_cycle;Signal;HPM_P1;HPM_P2
2022/09/24 00:00:57;;;;;;;1.33;1.15;;;;;;;11.57;68.45;98629.09;4919321;29;20048;-65
2022/09/24 00:03:25;;;;;;;0.90;0.88;;;;;;;11.56;68.70;98632.78;4919369;29;20076;-65
2022/09/24 00:05:52;;;;;;;1.00;0.90;;;;;;;11.56;68.56;98631.97;4918426;29;20048;-64
2022/09/24 00:08:19;;;;;;;1.23;1.13;;;;;;;11.55;68.75;98632.97;4917345;29;20397;-64
2022/09/24 00:10:47;;;;;;;1.25;1.15;;;;;;;11.55;68.77;98625.00;4917727;29;20044;-65
2022/09/24 00:13:16;;;;;;;1.05;0.93;;;;;;;11.55;69.08;98630.31;4918742;29;20040;-67
2022/09/24 00:15:45;;;;;;;1.45;1.35;;;;;;;11.56;68.68;98629.31;4933760;29;20048;-66
2022/09/24 00:18:16;;;;;;;2.15;1.75;;;;;;;11.53;68.75;98621.78;4916954;29;20040;-65
2022/09/24 00:20:43;;;;;;;2.55;1.77;;;;;;;11.49;68.41;98628.47;4918744;29;20419;-65
2022/09/24 00:23:10;;;;;;;3.30;2.88;;;;;;;11.43;68.66;98614.25;4918756;29;20560;-65
2022/09/24 00:28:31;;;;;;;2.13;1.90;;;;;;;11.32;69.30;98625.41;4918645;29;20048;-64
2022/09/24 00:31:03;;;;;;;3.50;1.88;;;;;;;11.27;69.27;98622.56;4918742;29;20055;-64
2022/09/24 00:33:31;;;;;;;1.77;1.40;;;;;;;11.25;69.41;98621.94;4918600;29;20075;-64
2022/09/24 00:36:01;;;;;;;1.33;1.23;;;;;;;11.22;69.78;98617.84;4918592;29;20044;-65
2022/09/24 00:38:28;;;;;;;1.33;1.23;;;;;;;11.21;69.58;98616.22;4917615;29;20052;-65
2022/09/24 00:40:55;;;;;;;1.55;1.45;;;;;;;11.18;69.68;98600.75;4918308;29;20064;-65
2022/09/24 00:43:24;;;;;;;2.55;1.55;;;;;;;11.13;69.90;98600.53;4918382;29;20437;-65
2022/09/24 00:46:01;;;;;;;1.63;1.52;;;;;;;11.07;69.93;98606.66;4918139;29;20497;-65
2022/09/24 00:48:27;;;;;;;0.95;0.95;;;;;;;11.06;70.34;98610.28;4917233;29;20112;-65
2022/09/24 00:50:54;;;;;;;1.40;1.30;;;;;;;11.04;70.25;98604.41;4918006;29;20075;-65
2022/09/24 00:53:27;;;;;;;0.90;0.90;;;;;;;11.01;70.06;98602.16;4932688;29;20080;-64
2022/09/24 00:55:55;;;;;;;0.80;0.80;;;;;;;11.00;70.46;98603.16;4918416;29;20389;-65
2022/09/24 00:58:22;;;;;;;1.52;1.42;;;;;;;10.99;70.00;98598.91;4917498;29;20048;-66
2022/09/24 01:00:52;;;;;;;1.75;1.65;;;;;;;10.95;69.87;98602.97;4920838;29;20476;-65
2022/09/24 01:03:25;;;;;;;1.73;1.52;;;;;;;10.90;70.03;98607.03;4921643;29;20123;-65
2022/09/24 01:05:52;;;;;;;1.70;1.60;;;;;;;10.87;70.20;98602.13;4921073;29;20052;-65
2022/09/24 01:08:19;;;;;;;3.17;1.88;;;;;;;10.84;70.20;98594.56;4920611;29;20040;-65
2022/09/24 01:10:59;;;;;;;3.63;2.80;;;;;;;10.79;70.25;98589.06;4920961;29;20048;-66
2022/09/24 01:13:32;;;;;;;3.40;3.10;;;;;;;10.71;70.19;98580.50;4920921;29;20051;-66
2022/09/24 01:16:27;;;;;;;3.03;2.60;;;;;;;10.62;70.21;98585.16;4919289;29;20056;-65
2022/09/24 01:19:08;;;;;;;;;;;;;;;10.57;70.52;98587.56;4921109;29;20040;-65
2022/09/24 01:21:44;;;;;;;2.42;2.22;;;;;;;10.52;70.66;98580.22;4919000;29;20380;-65
2022/09/24 01:24:27;;;;;;;2.15;1.77;;;;;;;10.51;70.79;98577.78;4917861;29;20052;-65
2022/09/24 01:27:01;;;;;;;2.67;2.03;;;;;;;10.48;71.28;98573.72;4915842;29;20409;-66
2022/09/24 01:29:36;;;;;;;2.55;2.35;;;;;;;10.47;70.74;98572.09;4917346;29;20075;-65
2022/09/24 01:32:07;;;;;;;2.75;2.35;;;;;;;10.41;70.70;98570.25;4917255;29;20481;-65
2022/09/24 01:34:44;;;;;;;2.20;2.00;;;;;;;10.37;70.92;98561.91;4917240;29;20394;-65
2022/09/24 01:37:14;;;;;;;1.95;1.75;;;;;;;10.35;71.42;98561.25;4915676;29;20446;-65
2022/09/24 01:39:44;;;;;;;2.28;1.95;;;;;;;10.33;71.03;98565.13;4916174;29;20456;-64
2022/09/24 01:42:12;;;;;;;2.20;2.00;;;;;;;10.29;71.26;98562.06;4916635;29;20100;-64
2022/09/24 01:44:43;;;;;;;2.30;2.10;;;;;;;10.26;71.15;98559.00;4916621;29;20047;-65
2022/09/24 01:47:17;;;;;;;1.88;1.77;;;;;;;10.23;71.39;98564.63;4917664;29;20449;-64
2022/09/24 01:49:43;;;;;;;2.03;1.70;;;;;;;10.22;71.57;98569.09;4916379;29;20048;-64
2022/09/24 01:52:15;;;;;;;1.42;1.33;;;;;;;10.22;71.58;98557.72;4917515;29;20452;-65
2022/09/24 01:54:49;;;;;;;1.23;1.13;;;;;;;10.22;71.78;98552.44;4916213;29;20103;-66
2022/09/24 01:57:26;;;;;;;1.70;1.60;;;;;;;10.20;71.68;98552.63;4914780;29;20461;-66
2022/09/24 02:00:01;;;;;;;1.88;1.75;;;;;;;10.17;71.60;98555.69;4915844;29;20055;-66
2022/09/24 02:02:44;;;;;;;1.52;1.42;;;;;;;10.13;71.42;98559.72;4915901;29;20080;-65
2022/09/24 02:05:17;;;;;;;1.42;1.33;;;;;;;10.08;71.98;98552.38;4917224;29;20040;-64
2022/09/24 02:08:07;;;;;;;1.50;1.40;;;;;;;10.08;71.60;98557.66;4916494;29;20044;-65
2022/09/24 02:10:41;;;;;;;2.25;1.35;;;;;;;10.06;71.93;98554.38;4908348;29;20712;-64
2022/09/24 02:13:09;;;;;;;;;;;;;;;10.03;71.69;98556.59;4916068;29;20075;-65
2022/09/24 02:15:40;;;;;;;2.10;1.10;;;;;;;9.97;71.73;98541.53;4916887;29;19930;-65
2022/09/24 02:18:12;;;;;;;2.00;1.80;;;;;;;9.91;71.38;98540.47;4914946;29;20052;-65
2022/09/24 02:20:42;;;;;;;1.50;1.40;;;;;;;9.82;71.46;98547.75;4931579;29;20051;-65
2022/09/24 02:23:10;;;;;;;1.70;1.60;;;;;;;9.74;71.71;98545.25;4916990;29;20044;-65
2022/09/24 02:25:43;;;;;;;1.55;1.45;;;;;;;9.72;72.04;98547.28;4915849;29;20493;-65
2022/09/24 02:28:09;;;;;;;1.33;1.23;;;;;;;9.73;72.12;98546.28;4915221;29;20056;-66
2022/09/24 02:30:42;;;;;;;1.00;1.00;;;;;;;9.75;72.15;98536.31;4916723;29;20087;-63
2022/09/24 02:34:19;;;;;;;1.70;1.60;;;;;;;9.76;71.96;98530.06;4915760;29;20108;-64
2022/09/24 02:35:58;;;;;;;2.80;2.13;;;;;;;9.74;72.10;98529.41;4916684;29;20044;-66
2022/09/24 02:38:25;;;;;;;1.70;1.60;;;;;;;9.71;71.91;98518.44;4916270;29;20485;-63
2022/09/24 02:40:52;;;;;;;1.55;1.42;;;;;;;9.68;71.82;98520.47;4916664;29;20039;-64
2022/09/24 02:43:20;;;;;;;1.90;1.70;;;;;;;9.64;71.95;98516.59;4916503;29;20071;-64
2022/09/24 02:45:46;;;;;;;3.17;2.22;;;;;;;9.61;71.72;98526.69;4916488;29;20051;-64
2022/09/24 02:48:13;;;;;;;2.35;2.15;;;;;;;9.55;71.78;98523.03;4915997;29;20497;-64
2022/09/24 02:50:39;;;;;;;1.88;1.67;;;;;;;9.51;71.98;98519.13;4899720;29;20441;-66
2022/09/24 02:53:06;;;;;;;1.60;1.50;;;;;;;9.49;72.24;98515.06;4916695;29;20052;-66
2022/09/24 02:55:32;;;;;;;1.73;1.52;;;;;;;9.49;72.35;98517.69;4916306;29;20052;-66
2022/09/24 02:57:59;;;;;;;1.67;1.30;;;;;;;9.49;72.05;98515.06;4914668;29;20492;-66
2022/09/24 03:00:25;;;;;;;1.40;1.30;;;;;;;9.49;72.46;98510.59;4930688;29;20048;-66
2022/09/24 03:02:52;;;;;;;2.97;1.88;;;;;;;9.48;71.72;98519.50;4916574;29;20088;-64
2022/09/24 03:05:20;;;;;;;3.05;1.98;;;;;;;9.42;71.64;98518.44;4916381;29;20048;-64
2022/09/24 03:07:46;;;;;;;1.83;1.70;;;;;;;9.41;72.62;98521.28;4915210;29;20044;-64
2022/09/24 03:10:13;;;;;;;1.45;1.35;;;;;;;9.42;72.46;98523.72;4918753;29;20044;-64
2022/09/24 03:12:41;;;;;;;1.30;1.20;;;;;;;9.45;72.49;98519.88;4919647;29;20059;-63
2022/09/24 03:15:07;;;;;;;1.73;1.60;;;;;;;9.47;72.01;98517.03;4919811;29;20504;-63
2022/09/24 03:17:34;;;;;;;3.50;2.20;;;;;;;9.45;71.71;98521.72;4917849;29;20044;-64
2022/09/24 03:20:01;;;;;;;3.13;2.10;;;;;;;9.40;71.72;98517.03;4919721;29;20040;-64
2022/09/24 03:22:27;;;;;;;1.92;1.80;;;;;;;9.35;71.79;98517.59;4920087;29;20493;-64
2022/09/24 03:24:54;;;;;;;1.63;1.52;;;;;;;9.35;72.20;98522.06;4919447;29;20052;-64
2022/09/24 03:27:20;;;;;;;1.90;1.80;;;;;;;9.35;71.91;98514.97;4918907;29;20424;-64
2022/09/24 03:32:32;;;;;;;3.40;2.22;;;;;;;9.31;71.63;98516.34;4919395;29;20048;-64
2022/09/24 03:35:00;;;;;;;2.97;1.83;;;;;;;9.30;72.17;98512.06;4919809;29;20504;-64
2022/09/24 03:37:26;;;;;;;1.80;1.20;;;;;;;9.34;72.51;98521.22;4918663;29;20055;-64
2022/09/24 03:39:53;;;;;;;1.52;1.42;;;;;;;9.36;72.33;98516.59;4918222;29;20416;-64
2022/09/24 03:42:19;;;;;;;1.30;1.20;;;;;;;9.39;71.99;98515.41;4919258;29;20131;-64
2022/09/24 03:44:46;;;;;;;1.35;1.25;;;;;;;9.41;72.34;98510.72;4919466;29;20572;-64
2022/09/24 03:47:12;;;;;;;2.15;2.00;;;;;;;9.42;71.88;98504.44;4933219;29;20469;-64
2022/09/24 03:49:39;;;;;;;1.88;1.70;;;;;;;9.39;71.44;98497.75;4919081;29;20496;-64
2022/09/24 03:52:05;;;;;;;3.95;1.80;;;;;;;9.38;71.82;98504.00;4919015;29;20404;-64
2022/09/24 03:54:32;;;;;;;2.03;1.73;;;;;;;9.37;71.95;98502.38;4919113;29;20047;-64
2022/09/24 03:56:58;;;;;;;1.50;1.40;;;;;;;9.39;72.07;98499.56;4917326;29;20095;-64
2022/09/24 03:59:25;;;;;;;1.25;1.15;;;;;;;9.42;72.09;98504.44;4918899;29;20044;-64
2022/09/24 04:01:51;;;;;;;1.23;1.13;;;;;;;9.44;72.17;98499.81;5362322;23;20049;-70
2022/09/24 04:04:18;;;;;;;1.33;1.23;;;;;;;9.46;71.51;98497.78;4919079;29;20052;-70
2022/09/24 04:06:45;;;;;;;1.52;1.40;;;;;;;9.47;71.74;98498.56;4918486;29;20389;-70
2022/09/24 04:09:11;;;;;;;1.58;1.35;;;;;;;9.47;71.73;98498.56;4918869;29;20044;-70
2022/09/24 04:11:38;;;;;;;1.23;1.20;;;;;;;9.48;71.71;98498.41;4917628;29;20055;-70
2022/09/24 04:14:04;;;;;;;1.60;1.50;;;;;;;9.47;71.61;98491.50;4918776;29;20051;-71
2022/09/24 04:16:31;;;;;;;1.55;1.40;;;;;;;9.48;71.55;98489.69;4936447;23;20111;-68
2022/09/24 04:18:58;;;;;;;1.90;1.80;;;;;;;9.46;71.10;98486.41;4917594;29;20055;-66
2022/09/24 04:21:25;;;;;;;2.63;2.38;;;;;;;9.43;71.30;98482.34;4916930;29;20563;-66
2022/09/24 04:23:51;;;;;;;3.20;2.38;;;;;;;9.40;71.15;98464.25;4917452;29;20138;-67
2022/09/24 04:26:19;;;;;;;3.03;2.28;;;;;;;9.36;70.92;98463.81;4916700;29;20052;-67
2022/09/24 04:28:45;;;;;;;2.75;2.40;;;;;;;9.32;70.98;98469.69;4918414;29;20056;-66
2022/09/24 04:31:11;;;;;;;3.95;1.98;;;;;;;9.32;71.46;98467.03;4917272;29;20048;-67
2022/09/24 04:33:39;;;;;;;1.70;1.60;;;;;;;9.32;71.56;98473.13;4901778;29;20068;-67
2022/09/24 04:36:06;;;;;;;2.00;1.70;;;;;;;9.35;71.48;98483.31;4916746;29;20051;-69
2022/09/24 04:38:32;;;;;;;1.80;1.70;;;;;;;9.35;71.17;98466.66;4917040;29;20052;-65
2022/09/24 04:41:08;;;;;;;2.28;1.88;;;;;;;9.35;71.24;98478.03;4918330;29;20036;-65
2022/09/24 04:43:35;;;;;;;3.17;1.90;;;;;;;9.33;71.24;98474.75;4918389;29;20067;-66
2022/09/24 04:46:03;;;;;;;2.50;2.30;;;;;;;9.32;71.16;98477.59;4918067;29;20048;-66
2022/09/24 04:48:30;;;;;;;2.25;1.63;;;;;;;9.31;71.16;98475.97;4917196;29;20558;-66
2022/09/24 04:50:57;;;;;;;1.85;1.75;;;;;;;9.31;71.34;98474.16;4918135;29;20493;-65
2022/09/24 04:53:23;;;;;;;2.20;2.00;;;;;;;9.32;71.14;98480.22;4918074;29;20047;-68
2022/09/24 04:55:50;;;;;;;15.27;9.50;;;;;;;9.29;71.13;98476.16;4917814;29;20527;-66
2022/09/24 04:58:17;;;;;;;5.57;4.65;;;;;;;9.27;71.16;98467.63;4916370;29;20084;-66
2022/09/24 05:00:44;;;;;;;3.63;2.70;;;;;;;9.28;71.58;98469.25;4916809;29;20044;-66
2022/09/24 05:03:10;;;;;;;2.65;2.30;;;;;;;9.30;71.50;98469.84;4917871;29;20099;-67
2022/09/24 05:05:37;;;;;;;2.33;1.98;;;;;;;9.36;71.37;98470.94;4917868;29;20040;-66
2022/09/24 05:08:04;;;;;;;1.98;1.77;;;;;;;9.39;71.54;98467.91;4916067;29;20052;-66
2022/09/24 05:10:31;;;;;;;1.60;1.50;;;;;;;9.43;71.55;98469.97;4917646;29;20127;-66
2022/09/24 05:12:59;;;;;;;1.40;1.30;;;;;;;9.49;71.32;98476.28;4917915;29;20066;-66
2022/09/24 05:15:25;;;;;;;1.63;1.50;;;;;;;9.53;71.25;98476.72;4916458;29;20496;-66
2022/09/24 05:17:52;;;;;;;2.38;2.17;;;;;;;9.55;71.13;98477.31;4917007;29;20055;-66
2022/09/24 05:20:19;;;;;;;1.70;1.60;;;;;;;9.56;70.87;98476.34;4917439;29;20448;-66
2022/09/24 05:22:48;;;;;;;2.17;1.80;;;;;;;9.54;70.74;98473.88;4916282;29;20052;-67
2022/09/24 05:25:16;;;;;;;2.00;1.50;;;;;;;9.53;70.65;98474.06;4916618;29;20080;-66
2022/09/24 05:27:52;;;;;;;1.77;1.55;;;;;;;9.54;70.82;98480.97;4915529;29;20056;-67
2022/09/24 05:30:21;;;;;;;3.38;1.60;;;;;;;9.58;71.03;98484.84;4900502;29;20036;-67
2022/09/24 05:32:51;;;;;;;1.73;1.45;;;;;;;9.57;70.88;98481.41;4899759;29;20056;-67
2022/09/24 05:35:23;;;;;;;1.70;1.60;;;;;;;9.60;71.00;98480.22;4916239;29;20052;-66
2022/09/24 05:37:52;;;;;;;2.28;1.40;;;;;;;9.63;70.48;98480.66;4915656;29;20417;-66
2022/09/24 05:43:04;;;;;;;1.88;1.50;;;;;;;9.65;70.83;98488.34;4917161;29;20496;-66
2022/09/24 05:45:31;;;;;;;1.27;1.17;;;;;;;9.70;70.56;98482.50;4915945;29;20123;-67
2022/09/24 05:47:58;;;;;;;2.10;1.90;;;;;;;9.71;70.25;98476.19;4916366;29;20048;-68
2022/09/24 05:50:26;;;;;;;9.32;6.50;;;;;;;9.73;70.36;98482.13;4917053;29;20452;-66
2022/09/24 05:52:52;;;;;;;4.95;3.88;;;;;;;9.74;70.44;98478.47;4915858;29;20095;-67
2022/09/24 05:55:18;;;;;;;3.40;3.10;;;;;;;9.75;70.67;98480.88;4916992;29;20103;-66
2022/09/24 05:57:45;;;;;;;2.90;2.22;;;;;;;9.78;70.45;98483.16;4916361;29;20048;-66
2022/09/24 06:00:11;;;;;;;3.08;2.17;;;;;;;9.78;70.07;98480.50;4916933;29;20044;-65
2022/09/24 06:02:38;;;;;;;2.15;1.98;;;;;;;9.79;70.21;98481.31;4916963;29;20452;-68
2022/09/24 06:05:05;;;;;;;2.92;1.80;;;;;;;9.82;70.50;98480.94;4915643;29;20099;-66
2022/09/24 06:07:32;;;;;;;1.95;1.70;;;;;;;9.86;70.64;98485.63;4914953;29;20487;-67
2022/09/24 06:09:59;;;;;;;1.73;1.63;;;;;;;9.93;70.44;98490.94;4916812;29;20048;-67
2022/09/24 06:12:26;;;;;;;1.60;1.50;;;;;;;10.01;70.52;98500.53;4917018;29;20095;-66
2022/09/24 06:14:52;;;;;;;1.50;1.40;;;;;;;10.09;70.57;98489.81;4900083;29;20048;-67
2022/09/24 06:17:19;;;;;;;1.25;1.15;;;;;;;10.18;70.39;98493.91;4914568;29;20055;-65
2022/09/24 06:19:46;;;;;;;1.40;1.30;;;;;;;10.26;69.80;98496.41;4916362;29;20448;-65
2022/09/24 06:22:13;;;;;;;1.60;1.50;;;;;;;10.34;69.58;98496.22;4916644;29;20059;-68
2022/09/24 06:24:40;;;;;;;1.70;1.60;;;;;;;10.40;69.31;98492.78;4916497;29;20123;-65
2022/09/24 06:27:07;;;;;;;2.10;1.70;;;;;;;10.46;69.05;98493.81;4915704;29;20559;-65
2022/09/24 06:29:34;;;;;;;1.77;1.45;;;;;;;10.53;69.14;98493.81;4915120;29;20048;-67
2022/09/24 06:32:01;;;;;;;2.10;1.90;;;;;;;10.64;68.99;98498.53;4916375;29;20461;-66
2022/09/24 06:34:27;;;;;;;2.00;1.90;;;;;;;10.74;68.56;98488.41;4915207;29;20095;-67
2022/09/24 06:36:55;;;;;;;3.05;1.85;;;;;;;10.81;68.73;98485.75;4915573;29;20051;-67
2022/09/24 06:39:23;;;;;;;1.50;1.40;;;;;;;10.85;68.36;98485.13;4916087;29;20048;-67
2022/09/24 06:41:50;;;;;;;2.20;1.98;;;;;;;10.88;68.14;98484.75;4914872;29;20052;-67
2022/09/24 06:44:18;;;;;;;2.45;2.25;;;;;;;10.88;67.84;98487.38;4916009;29;20497;-67
2022/09/24 06:46:45;;;;;;;2.53;2.30;;;;;;;10.87;68.00;98483.13;4914567;29;20055;-67
2022/09/24 06:49:11;;;;;;;2.22;2.00;;;;;;;10.87;68.11;98477.84;4916278;29;20107;-67
2022/09/24 06:51:38;;;;;;;3.72;2.00;;;;;;;10.90;68.27;98482.72;4915436;29;20044;-66
2022/09/24 06:54:05;;;;;;;4.65;3.60;;;;;;;10.96;68.30;98496.16;4915162;29;20111;-66
2022/09/24 06:56:31;;;;;;;4.00;3.20;;;;;;;11.01;68.31;98499.00;4898837;29;20104;-66
2022/09/24 06:58:58;;;;;;;4.65;3.05;;;;;;;11.06;67.99;98501.84;4916740;29;20103;-66
2022/09/24 07:01:24;;;;;;;4.32;2.50;;;;;;;11.04;68.05;98504.69;4915301;29;20052;-66
2022/09/24 07:03:51;;;;;;;2.03;1.70;;;;;;;11.10;68.40;98503.06;4915408;29;20092;-66
2022/09/24 07:07:28;;;;;;;1.52;1.42;;;;;;;11.22;68.28;98505.91;4915356;29;20048;-66
2022/09/24 07:09:13;;;;;;;3.90;1.92;;;;;;;11.32;67.63;98501.84;4914924;29;20060;-66
2022/09/24 07:11:40;;;;;;;2.47;2.13;;;;;;;11.37;67.19;98503.88;4915376;29;20048;-66
2022/09/24 07:14:07;;;;;;;3.03;1.75;;;;;;;11.44;67.94;98503.88;4916478;29;20048;-66
2022/09/24 07:16:33;;;;;;;1.33;1.25;;;;;;;11.54;67.83;98501.63;4915807;29;20044;-66
2022/09/24 07:19:00;;;;;;;2.47;2.13;;;;;;;11.61;66.58;98505.06;4915384;29;20079;-66
2022/09/24 07:21:27;;;;;;;2.13;1.60;;;;;;;11.63;66.53;98505.66;4915005;29;20040;-66
2022/09/24 07:23:54;;;;;;;2.65;2.03;;;;;;;11.68;66.47;98499.78;4917121;29;20047;-65
2022/09/24 07:26:24;;;;;;;2.58;1.90;;;;;;;11.76;66.72;98499.56;4914743;29;20059;-65
2022/09/24 07:28:50;;;;;;;1.63;1.50;;;;;;;11.91;66.78;98502.78;4915148;29;20041;-65
2022/09/24 07:31:17;;;;;;;1.65;1.50;;;;;;;12.07;66.87;98506.81;4915865;29;20059;-65
2022/09/24 07:33:43;;;;;;;1.95;1.60;;;;;;;12.19;66.59;98506.97;4915424;29;20456;-66
2022/09/24 07:36:10;;;;;;;1.95;1.70;;;;;;;12.27;66.18;98512.03;4913985;29;20044;-66
2022/09/24 07:38:36;;;;;;;1.58;1.48;;;;;;;12.34;66.28;98503.03;4915015;29;20056;-65
2022/09/24 07:41:04;;;;;;;1.40;1.30;;;;;;;12.45;66.37;98504.22;4915037;29;20071;-66
2022/09/24 07:43:32;;;;;;;1.73;1.45;;;;;;;12.57;65.52;98501.69;4899289;29;20052;-66
2022/09/24 07:45:58;;;;;;;1.42;1.27;;;;;;;12.66;65.52;98507.59;4915923;29;20556;-66
2022/09/24 07:48:25;;;;;;;1.45;1.27;;;;;;;12.76;65.61;98505.25;4915539;29;20044;-66
2022/09/24 07:50:51;;;;;;;2.30;1.42;;;;;;;12.80;64.61;98506.47;4915904;29;20040;-65
2022/09/24 07:53:20;;;;;;;2.28;2.08;;;;;;;12.82;64.93;98502.59;4916133;29;20131;-65
2022/09/24 07:55:48;;;;;;;1.85;1.75;;;;;;;12.84;64.74;98505.81;4916910;29;20059;-66
2022/09/24 07:58:14;;;;;;;2.20;1.50;;;;;;;12.90;65.60;98514.78;4917822;29;20048;-66
2022/09/24 08:00:41;;;;;;;2.03;1.83;;;;;;;12.98;64.89;98509.22;4919653;29;20108;-65
2022/09/24 08:03:07;;;;;;;2.55;2.22;;;;;;;13.00;64.54;98507.16;4918016;29;20131;-65
2022/09/24 08:05:34;;;;;;;3.15;1.90;;;;;;;13.03;64.40;98503.25;4917649;29;20059;-66
2022/09/24 08:08:03;;;;;;;2.33;1.52;;;;;;;13.08;64.59;98516.69;4918910;29;20051;-65
2022/09/24 08:10:29;;;;;;;1.40;1.30;;;;;;;13.16;64.85;98512.97;4918784;29;20052;-64
2022/09/24 08:13:00;;;;;;;1.23;1.17;;;;;;;13.22;64.57;98518.19;4918944;29;20066;-66
2022/09/24 08:15:26;;;;;;;1.20;1.15;;;;;;;13.31;64.18;98516.94;4917589;29;20060;-65
2022/09/24 08:17:53;;;;;;;1.70;1.40;;;;;;;13.37;63.91;98524.03;4917944;29;20044;-66
2022/09/24 08:20:21;;;;;;;1.88;1.60;;;;;;;13.42;63.47;98518.06;4918568;29;20515;-65
2022/09/24 08:22:48;;;;;;;1.92;1.73;;;;;;;13.47;63.48;98518.25;4917347;29;20115;-65
2022/09/24 08:25:14;;;;;;;1.75;1.65;;;;;;;13.55;63.23;98523.28;4918617;29;20044;-66
2022/09/24 08:27:41;;;;;;;1.33;1.10;;;;;;;13.65;63.23;98520.13;4918014;29;20052;-65
2022/09/24 08:30:08;;;;;;;0.90;0.90;;;;;;;13.80;63.50;98515.28;4917480;29;20075;-67
2022/09/24 08:32:35;;;;;;;1.27;1.17;;;;;;;13.97;62.68;98506.72;4917328;29;20560;-64
2022/09/24 08:35:01;;;;;;;1.80;1.70;;;;;;;14.12;62.15;98510.63;4918468;29;20051;-67
2022/09/24 08:37:28;;;;;;;2.47;2.22;;;;;;;14.20;61.68;98514.00;4916782;29;20048;-66
2022/09/24 08:39:55;;;;;;;2.00;1.80;;;;;;;14.28;62.01;98514.50;4918443;29;20441;-67
2022/09/24 08:42:44;;;;;;;1.23;1.10;;;;;;;14.38;62.18;98520.13;4918165;29;20044;-67
2022/09/24 08:48:03;;;;;;;1.55;1.30;;;;;;;14.52;61.75;98528.75;4917640;29;20036;-66
2022/09/24 08:50:33;;;;;;;1.60;1.38;;;;;;;14.50;61.85;98525.53;4916948;29;20096;-66
2022/09/24 08:53:10;;;;;;;3.28;1.85;;;;;;;14.47;61.49;98531.25;4916877;29;20048;-66
2022/09/24 08:55:45;;;;;;;2.90;2.05;;;;;;;14.40;61.21;98525.19;4918186;29;20074;-66
2022/09/24 08:58:27;;;;;;;3.30;1.70;;;;;;;14.30;61.78;98523.09;4916405;29;20100;-68
2022/09/24 09:01:05;;;;;;;1.30;1.20;;;;;;;14.22;62.11;98528.69;4901207;29;20044;-66
2022/09/24 09:03:38;;;;;;;1.20;0.98;;;;;;;14.16;62.42;98524.25;4900991;29;20567;-66
2022/09/24 09:06:31;;;;;;;1.40;1.30;;;;;;;14.11;62.21;98522.28;4916393;29;20111;-66
2022/09/24 09:09:08;;;;;;;12.75;8.10;;;;;;;14.07;62.35;98528.25;4878638;29;20096;-66
2022/09/24 09:11:39;;;;;;;9.77;6.05;;;;;;;14.08;62.13;98527.22;4916466;29;20055;-66
2022/09/24 09:14:26;;;;;;;5.05;3.70;;;;;;;14.21;61.97;98516.44;4916204;29;20424;-66
2022/09/24 09:17:05;;;;;;;3.20;2.90;;;;;;;14.37;61.21;98517.69;4915899;29;20060;-66
2022/09/24 09:19:34;;;;;;;3.25;2.80;;;;;;;14.55;61.38;98508.91;4916249;29;20059;-68
2022/09/24 09:22:11;;;;;;;3.58;2.45;;;;;;;14.69;61.23;98518.31;4916072;29;20405;-66
2022/09/24 09:24:49;;;;;;;2.70;2.10;;;;;;;14.81;60.55;98519.16;4917633;29;20052;-67
2022/09/24 09:27:18;;;;;;;2.63;2.42;;;;;;;14.95;60.79;98519.78;4915846;29;20071;-64
2022/09/24 09:29:56;;;;;;;2.75;2.50;;;;;;;15.10;60.55;98514.84;4900469;29;20048;-65
2022/09/24 09:32:41;;;;;;;3.97;2.38;;;;;;;15.27;60.31;98517.66;4917335;29;20036;-67
2022/09/24 09:35:20;;;;;;;2.08;1.88;;;;;;;15.42;60.13;98525.19;4915973;29;20091;-64
2022/09/24 09:38:03;;;;;;;2.55;2.30;;;;;;;15.47;59.70;98514.66;4915457;29;20052;-65
2022/09/24 09:40:47;;;;;;;2.83;2.40;;;;;;;15.51;59.26;98507.00;4915880;29;20052;-64
2022/09/24 09:43:13;;;;;;;2.75;2.00;;;;;;;15.58;59.46;98513.84;4915991;29;20048;-65
2022/09/24 09:45:50;;;;;;;2.88;2.33;;;;;;;15.67;59.88;98505.53;4900043;29;20048;-64
2022/09/24 09:48:20;;;;;;;3.10;2.80;;;;;;;15.74;59.30;98503.56;4915504;29;20048;-65
2022/09/24 09:50:49;;;;;;;2.67;2.47;;;;;;;15.75;59.29;98508.66;4899881;29;20048;-65
2022/09/24 09:53:28;;;;;;;3.05;2.08;;;;;;;15.76;59.70;98523.63;4915802;29;20096;-67
2022/09/24 09:56:06;;;;;;;1.77;1.65;;;;;;;15.74;59.71;98509.69;4915480;29;20119;-67
2022/09/24 09:58:36;;;;;;;1.95;1.75;;;;;;;15.78;59.40;98515.38;4915514;29;20092;-67
2022/09/24 10:01:09;;;;;;;1.90;1.70;;;;;;;15.83;59.62;98508.28;4915464;29;20044;-66
2022/09/24 10:03:45;;;;;;;2.25;2.05;;;;;;;15.96;59.20;98517.09;4915664;29;20048;-66
2022/09/24 10:06:34;;;;;;;2.15;1.70;;;;;;;16.06;59.53;98512.78;4916245;29;20044;-66
2022/09/24 10:09:12;;;;;;;1.52;1.42;;;;;;;16.19;59.23;98505.56;4910054;29;20059;-67
2022/09/24 10:11:39;;;;;;;2.58;2.05;;;;;;;16.35;58.57;98510.16;4915289;29;20052;-67
2022/09/24 10:14:13;;;;;;;3.17;2.17;;;;;;;16.56;58.39;98495.34;4915268;29;20050;-67
2022/09/24 10:16:42;;;;;;;;;;;;;;;16.68;58.31;98492.63;4899974;29;20079;-66
2022/09/24 10:19:21;;;;;;;2.38;2.17;;;;;;;16.80;58.24;98483.53;4914956;29;19930;-66
2022/09/24 10:21:49;;;;;;;2.78;2.15;;;;;;;16.93;58.27;98481.63;4916350;29;20348;-66
2022/09/24 10:24:20;;;;;;;2.65;2.20;;;;;;;17.05;58.17;98487.69;4915019;29;20047;-66
2022/09/24 10:26:48;;;;;;;2.30;2.10;;;;;;;17.20;57.76;98473.78;4914444;29;20063;-66
2022/09/24 10:32:19;;;;;;;2.90;2.13;;;;;;;17.42;57.32;98488.00;4916206;29;20496;-66
2022/09/24 10:34:57;;;;;;;1.90;1.80;;;;;;;17.60;57.67;98480.81;4914954;29;20052;-65
2022/09/24 10:37:24;;;;;;;2.72;2.28;;;;;;;17.76;57.13;98478.13;4914214;29;20112;-66
2022/09/24 10:40:23;;;;;;;2.40;2.20;;;;;;;17.93;56.77;98472.72;4914903;29;20555;-66
2022/09/24 10:43:04;;;;;;;2.70;2.50;;;;;;;18.07;56.72;98479.31;4916128;29;20048;-65
2022/09/24 10:45:55;;;;;;;2.45;2.25;;;;;;;18.20;56.53;98471.97;4914984;29;20111;-65
2022/09/24 10:48:25;;;;;;;2.00;1.65;;;;;;;18.37;56.48;98477.25;4914115;29;20460;-65
2022/09/24 10:51:12;;;;;;;1.63;1.48;;;;;;;18.40;56.54;98487.44;4914944;29;20040;-65
2022/09/24 10:53:57;;;;;;;2.65;2.20;;;;;;;18.29;56.87;98482.00;4916221;29;20489;-65
2022/09/24 10:56:38;;;;;;;2.97;2.00;;;;;;;18.21;57.47;98479.75;4914840;29;20052;-65
2022/09/24 10:59:36;;;;;;;2.03;1.90;;;;;;;18.15;57.62;98482.63;4916207;29;20052;-66
2022/09/24 11:02:12;;;;;;;2.03;1.85;;;;;;;18.19;57.92;98473.03;4915862;29;20044;-66
2022/09/24 11:05:18;;;;;;;4.32;2.53;;;;;;;18.24;57.87;98479.22;4898930;29;20052;-66
2022/09/24 11:08:00;;;;;;;2.50;2.30;;;;;;;18.16;57.82;98481.53;4893071;29;20051;-67
2022/09/24 11:10:50;;;;;;;2.55;2.35;;;;;;;18.09;57.99;98471.06;4914746;29;20047;-66
2022/09/24 11:13:33;;;;;;;2.30;2.10;;;;;;;18.26;58.15;98465.63;4916643;29;20125;-65
2022/09/24 11:16:22;;;;;;;1.77;1.63;;;;;;;18.58;57.42;98468.38;4916501;29;20048;-66
2022/09/24 11:19:06;;;;;;;1.60;1.50;;;;;;;19.01;57.09;98461.28;4899260;29;20083;-66
2022/09/24 11:22:04;;;;;;;1.73;1.50;;;;;;;19.38;56.45;98463.97;4915172;29;20036;-65
2022/09/24 11:24:49;;;;;;;2.40;1.77;;;;;;;19.61;56.32;98457.47;4916210;29;20041;-66
2022/09/24 11:27:28;;;;;;;5.18;4.18;;;;;;;19.70;55.67;98455.09;4915315;29;20047;-67
2022/09/24 11:30:08;;;;;;;3.20;2.88;;;;;;;19.79;55.68;98445.47;4916497;29;20051;-66
2022/09/24 11:33:01;;;;;;;2.55;2.30;;;;;;;19.90;55.13;98447.16;4919727;29;20052;-66
2022/09/24 11:35:49;;;;;;;2.58;2.25;;;;;;;19.94;55.21;98455.47;4918173;29;20040;-65
2022/09/24 11:38:36;;;;;;;2.05;1.70;;;;;;;20.00;54.96;98451.75;4918877;29;20452;-66
2022/09/24 11:41:11;;;;;;;2.50;1.88;;;;;;;20.08;54.92;98453.09;4918174;29;20390;-66
2022/09/24 11:44:03;;;;;;;2.20;1.95;;;;;;;20.12;54.53;98441.59;4918107;29;20055;-66
2022/09/24 11:46:37;;;;;;;1.83;1.73;;;;;;;20.29;54.41;98441.41;4918666;29;20052;-66
2022/09/24 11:49:13;;;;;;;1.73;1.63;;;;;;;20.49;53.97;98444.16;4917919;29;20048;-67
2022/09/24 11:51:54;;;;;;;1.58;1.48;;;;;;;20.63;53.67;98432.91;4918037;29;20044;-66
2022/09/24 11:54:24;;;;;;;1.90;1.80;;;;;;;20.65;53.46;98431.53;4918046;29;20515;-65
2022/09/24 11:57:07;;;;;;;1.95;1.80;;;;;;;20.68;53.24;98432.91;4918485;29;20052;-67
2022/09/24 11:59:40;;;;;;;1.95;1.80;;;;;;;20.62;53.15;98429.41;4919094;29;20051;-65
2022/09/24 12:02:22;;;;;;;2.03;1.83;;;;;;;20.50;53.35;98423.47;4919251;29;20286;-66
2022/09/24 12:05:05;;;;;;;1.73;1.40;;;;;;;20.47;53.36;98416.72;4918975;29;20040;-66
2022/09/24 12:07:59;;;;;;;2.40;1.90;;;;;;;20.39;53.41;98417.25;4917299;29;20040;-67
2022/09/24 12:10:56;;;;;;;1.92;1.83;;;;;;;20.22;53.78;98417.47;4917620;29;20056;-68